Friday, July 20, 2018, 8:15 PM EDT
Back to Local

KUNV, State College, University Park Airport

Location: State College, PA, United States Lat: 40.85
Local Time: 8:15 PM EDT ( 0:15 GMT) Lon: -77.85
Time Zone: US/Eastern Elev: 1240 ft

Show me the last for .
Show Decoded

2018-07-20 19:53 METAR KUNV 202353Z 14007KT 10SM SKC 25/14 A3003 =
2018-07-20 18:53 METAR KUNV 202253Z 18007KT 10SM SCT055 26/14 A3003 =
2018-07-20 17:53 METAR KUNV 202153Z 16006KT 10SM FEW060 27/16 A3003 =
2018-07-20 16:53 METAR KUNV 202053Z 18005G15KT 10SM SCT070 26/16 A3004 =
2018-07-20 15:53 METAR KUNV 201953Z 16004KT 10SM SCT048 BKN060 27/17 A3006 =
2018-07-20 14:53 METAR KUNV 201853Z 19008KT 10SM SCT065 26/15 A3008 =
2018-07-20 13:53 METAR KUNV 201753Z 15009KT 10SM SCT050 26/15 A3010 =
2018-07-20 12:53 METAR KUNV 201653Z 15012KT 10SM SCT047 26/16 A3011 =
2018-07-20 11:53 METAR KUNV 201553Z 15006KT 10SM SCT043 25/16 A3012 =
2018-07-20 10:53 METAR KUNV 201453Z 15012KT 10SM SCT030 24/17 A3013 =
2018-07-20 09:53 METAR KUNV 201353Z 00000KT 10SM FEW030 22/17 A3014 =
2018-07-20 08:53 METAR KUNV 201253Z 00000KT 10SM SKC 20/16 A3014 =
2018-07-20 07:53 METAR KUNV 201153Z 00000KT 10SM SKC 17/15 A3014 =
2018-07-20 06:53 METAR KUNV 201053Z 00000KT 10SM SKC 15/14 A3013 =
2018-07-20 05:53 METAR KUNV 200953Z 00000KT 10SM SKC 14/14 A3012 =
2018-07-20 05:35 METAR KUNV 200935Z AUTO 00000KT 10SM SCT065 SCT075 14/14 A3012 RMK AO2 T01440136
                 =
2018-07-20 05:15 METAR KUNV 200915Z AUTO 00000KT 10SM CLR 14/14 A3012 RMK AO2 T01410135 =
2018-07-20 04:55 METAR KUNV 200855Z AUTO 00000KT 10SM SCT065 SCT075 SCT100 15/14 A3012 RMK AO2
                 T01450140 =
2018-07-20 04:35 METAR KUNV 200835Z AUTO 00000KT 10SM SCT065 SCT075 SCT100 15/14 A3012 RMK AO2
                 T01480138 =
2018-07-20 04:15 METAR KUNV 200815Z AUTO 00000KT 10SM SCT065 SCT090 15/14 A3012 RMK AO2 T01530139
                 =
2018-07-20 03:55 METAR KUNV 200755Z AUTO 00000KT 10SM CLR 16/14 A3011 RMK AO2 T01640140 =
2018-07-20 03:35 METAR KUNV 200735Z AUTO 00000KT 10SM SCT060 SCT080 17/14 A3011 RMK AO2 T01650142
                 =
2018-07-20 03:15 METAR KUNV 200715Z AUTO 29004KT 10SM SCT070 SCT080 16/14 A3011 RMK AO2 T01600143
                 =
2018-07-20 02:55 METAR KUNV 200655Z AUTO 29003KT 10SM SCT070 15/14 A3011 RMK AO2 T01520141 =
2018-07-20 02:35 METAR KUNV 200635Z AUTO 00000KT 10SM CLR 16/14 A3010 RMK AO2 T01630141 =
2018-07-20 02:15 METAR KUNV 200615Z AUTO 00000KT 10SM SCT070 SCT080 16/15 A3011 RMK AO2 T01620145
                 =
2018-07-20 01:55 METAR KUNV 200555Z AUTO 00000KT 10SM CLR 17/15 A3011 RMK AO2 T01700146 10240
                 20170 =
2018-07-20 01:35 METAR KUNV 200535Z AUTO 00000KT 10SM CLR 17/15 A3012 RMK AO2 T01720146 =
2018-07-20 01:15 METAR KUNV 200515Z AUTO 00000KT 10SM CLR 18/15 A3012 RMK AO2 T01760145 =
2018-07-20 00:55 METAR KUNV 200455Z AUTO 00000KT 10SM SCT055 SCT070 SCT085 18/15 A3012 RMK AO2
                 T01750147 =
2018-07-20 00:35 METAR KUNV 200435Z AUTO 00000KT 10SM SCT055 SCT075 18/15 A3012 RMK AO2 T01780146
                 =
2018-07-20 00:15 METAR KUNV 200415Z AUTO 00000KT 10SM SCT080 18/15 A3012 RMK AO2 T01820147 =
2018-07-19 23:55 METAR KUNV 200355Z AUTO 00000KT 10SM CLR 18/15 A3012 RMK AO2 T01830150 402630123
                 =
2018-07-19 23:35 METAR KUNV 200335Z AUTO 00000KT 10SM SCT070 SCT080 19/15 A3011 RMK AO2 T01850150
                 =
2018-07-19 23:15 METAR KUNV 200315Z AUTO 00000KT 10SM SCT060 SCT070 SCT080 19/15 A3011 RMK AO2
                 T01940147 =
2018-07-19 22:55 METAR KUNV 200255Z AUTO 00000KT 10SM SCT060 SCT070 SCT085 19/15 A3011 RMK AO2
                 T01930147 =
2018-07-19 22:35 METAR KUNV 200235Z AUTO 00000KT 10SM SCT060 SCT070 SCT090 19/15 A3012 RMK AO2
                 T01910153 =
2018-07-19 22:15 METAR KUNV 200215Z AUTO 00000KT 10SM CLR 21/15 A3011 RMK AO2 T02060148 =
2018-07-19 21:53 METAR KUNV 200153Z 00000KT 10SM SKC 21/15 A3010 =
2018-07-19 20:53 METAR KUNV 200053Z 00000KT 10SM SKC 22/15 A3009 =

Support USWX by starting your Amazon purchase here.